sensor_id;sensor_type;location;lat;lon;timestamp;P1;durP1;ratioP1;P2;durP2;ratioP2
51312;SDS011;37397;53.226;10.400;2023-04-06T00:00:07;10.70;;;5.88;;
51312;SDS011;37397;53.226;10.400;2023-04-06T00:02:35;11.15;;;6.07;;
51312;SDS011;37397;53.226;10.400;2023-04-06T00:05:02;12.85;;;5.35;;
51312;SDS011;37397;53.226;10.400;2023-04-06T00:07:29;11.20;;;6.00;;
51312;SDS011;37397;53.226;10.400;2023-04-06T00:09:56;9.88;;;5.85;;
51312;SDS011;37397;53.226;10.400;2023-04-06T00:12:22;10.18;;;5.55;;
51312;SDS011;37397;53.226;10.400;2023-04-06T00:14:48;10.75;;;5.97;;
51312;SDS011;37397;53.226;10.400;2023-04-06T00:17:15;10.80;;;6.30;;
51312;SDS011;37397;53.226;10.400;2023-04-06T00:19:41;11.95;;;5.93;;
51312;SDS011;37397;53.226;10.400;2023-04-06T00:22:08;10.80;;;6.10;;
51312;SDS011;37397;53.226;10.400;2023-04-06T00:24:34;11.52;;;6.32;;
51312;SDS011;37397;53.226;10.400;2023-04-06T00:27:01;11.27;;;5.70;;
51312;SDS011;37397;53.226;10.400;2023-04-06T00:29:28;11.60;;;7.10;;
51312;SDS011;37397;53.226;10.400;2023-04-06T00:31:54;13.23;;;6.57;;
51312;SDS011;37397;53.226;10.400;2023-04-06T00:34:21;12.18;;;6.65;;
51312;SDS011;37397;53.226;10.400;2023-04-06T00:36:47;11.73;;;6.60;;
51312;SDS011;37397;53.226;10.400;2023-04-06T00:39:14;11.23;;;6.20;;
51312;SDS011;37397;53.226;10.400;2023-04-06T00:41:42;10.32;;;6.07;;
51312;SDS011;37397;53.226;10.400;2023-04-06T00:46:41;10.75;;;6.28;;
51312;SDS011;37397;53.226;10.400;2023-04-06T00:49:07;12.20;;;6.25;;
51312;SDS011;37397;53.226;10.400;2023-04-06T00:51:34;10.23;;;6.30;;
51312;SDS011;37397;53.226;10.400;2023-04-06T00:54:01;11.27;;;5.93;;
51312;SDS011;37397;53.226;10.400;2023-04-06T00:56:30;10.23;;;6.15;;
51312;SDS011;37397;53.226;10.400;2023-04-06T00:58:57;13.15;;;6.32;;
51312;SDS011;37397;53.226;10.400;2023-04-06T01:01:23;11.50;;;6.30;;
51312;SDS011;37397;53.226;10.400;2023-04-06T01:03:53;11.95;;;6.68;;
51312;SDS011;37397;53.226;10.400;2023-04-06T01:06:22;11.45;;;5.95;;
51312;SDS011;37397;53.226;10.400;2023-04-06T01:08:57;10.55;;;6.25;;
51312;SDS011;37397;53.226;10.400;2023-04-06T01:11:25;11.18;;;6.07;;
51312;SDS011;37397;53.226;10.400;2023-04-06T01:13:52;10.75;;;5.63;;
51312;SDS011;37397;53.226;10.400;2023-04-06T01:16:25;9.35;;;5.65;;
51312;SDS011;37397;53.226;10.400;2023-04-06T01:19:18;10.38;;;6.03;;
51312;SDS011;37397;53.226;10.400;2023-04-06T01:21:49;12.30;;;5.70;;
51312;SDS011;37397;53.226;10.400;2023-04-06T01:24:37;10.07;;;5.40;;
51312;SDS011;37397;53.226;10.400;2023-04-06T01:27:13;13.48;;;5.88;;
51312;SDS011;37397;53.226;10.400;2023-04-06T01:29:52;11.75;;;5.68;;
51312;SDS011;37397;53.226;10.400;2023-04-06T01:32:31;10.40;;;5.28;;
51312;SDS011;37397;53.226;10.400;2023-04-06T01:34:58;9.25;;;5.90;;
51312;SDS011;37397;53.226;10.400;2023-04-06T01:37:25;10.38;;;5.22;;
51312;SDS011;37397;53.226;10.400;2023-04-06T01:39:55;9.68;;;5.13;;
51312;SDS011;37397;53.226;10.400;2023-04-06T01:42:38;9.82;;;5.50;;
51312;SDS011;37397;53.226;10.400;2023-04-06T01:45:05;10.77;;;5.10;;
51312;SDS011;37397;53.226;10.400;2023-04-06T01:47:32;9.55;;;4.95;;
51312;SDS011;37397;53.226;10.400;2023-04-06T01:49:59;9.23;;;5.10;;
51312;SDS011;37397;53.226;10.400;2023-04-06T01:52:30;9.63;;;5.15;;
51312;SDS011;37397;53.226;10.400;2023-04-06T01:54:56;9.65;;;4.38;;
51312;SDS011;37397;53.226;10.400;2023-04-06T01:57:41;7.28;;;4.40;;
51312;SDS011;37397;53.226;10.400;2023-04-06T02:00:16;9.38;;;4.85;;
51312;SDS011;37397;53.226;10.400;2023-04-06T02:02:50;10.18;;;4.95;;
51312;SDS011;37397;53.226;10.400;2023-04-06T02:05:22;8.75;;;4.85;;
51312;SDS011;37397;53.226;10.400;2023-04-06T02:07:50;10.55;;;5.28;;
51312;SDS011;37397;53.226;10.400;2023-04-06T02:10:25;7.82;;;4.57;;
51312;SDS011;37397;53.226;10.400;2023-04-06T02:12:52;8.65;;;5.15;;
51312;SDS011;37397;53.226;10.400;2023-04-06T02:15:24;9.65;;;4.80;;
51312;SDS011;37397;53.226;10.400;2023-04-06T02:17:51;7.30;;;4.63;;
51312;SDS011;37397;53.226;10.400;2023-04-06T02:20:18;10.00;;;5.00;;
51312;SDS011;37397;53.226;10.400;2023-04-06T02:22:44;8.48;;;4.55;;
51312;SDS011;37397;53.226;10.400;2023-04-06T02:25:11;8.02;;;4.55;;
51312;SDS011;37397;53.226;10.400;2023-04-06T02:27:37;9.60;;;5.10;;
51312;SDS011;37397;53.226;10.400;2023-04-06T02:30:04;12.73;;;6.03;;
51312;SDS011;37397;53.226;10.400;2023-04-06T02:32:31;7.88;;;4.85;;
51312;SDS011;37397;53.226;10.400;2023-04-06T02:34:57;10.05;;;4.53;;
51312;SDS011;37397;53.226;10.400;2023-04-06T02:37:24;9.55;;;4.60;;
51312;SDS011;37397;53.226;10.400;2023-04-06T02:39:51;9.75;;;5.15;;
51312;SDS011;37397;53.226;10.400;2023-04-06T02:42:18;9.90;;;5.13;;
51312;SDS011;37397;53.226;10.400;2023-04-06T02:44:46;9.32;;;5.05;;
51312;SDS011;37397;53.226;10.400;2023-04-06T02:47:13;12.27;;;4.85;;
51312;SDS011;37397;53.226;10.400;2023-04-06T02:49:45;8.57;;;4.78;;
51312;SDS011;37397;53.226;10.400;2023-04-06T02:52:14;8.55;;;5.05;;
51312;SDS011;37397;53.226;10.400;2023-04-06T02:54:41;9.10;;;4.93;;
51312;SDS011;37397;53.226;10.400;2023-04-06T02:57:07;10.25;;;5.20;;
51312;SDS011;37397;53.226;10.400;2023-04-06T02:59:41;10.20;;;4.88;;
51312;SDS011;37397;53.226;10.400;2023-04-06T03:02:19;9.73;;;5.15;;
51312;SDS011;37397;53.226;10.400;2023-04-06T03:04:46;9.10;;;4.70;;
51312;SDS011;37397;53.226;10.400;2023-04-06T03:07:29;9.32;;;5.05;;
51312;SDS011;37397;53.226;10.400;2023-04-06T03:09:56;9.57;;;4.97;;
51312;SDS011;37397;53.226;10.400;2023-04-06T03:12:22;11.93;;;5.20;;
51312;SDS011;37397;53.226;10.400;2023-04-06T03:15:24;8.18;;;4.93;;
51312;SDS011;37397;53.226;10.400;2023-04-06T03:17:57;9.65;;;5.30;;
51312;SDS011;37397;53.226;10.400;2023-04-06T03:20:34;9.05;;;4.93;;
51312;SDS011;37397;53.226;10.400;2023-04-06T03:23:00;9.32;;;4.85;;
51312;SDS011;37397;53.226;10.400;2023-04-06T03:25:30;9.73;;;5.10;;
51312;SDS011;37397;53.226;10.400;2023-04-06T03:28:00;8.48;;;4.80;;
51312;SDS011;37397;53.226;10.400;2023-04-06T03:30:27;11.50;;;5.53;;
51312;SDS011;37397;53.226;10.400;2023-04-06T03:32:54;9.35;;;4.80;;
51312;SDS011;37397;53.226;10.400;2023-04-06T03:35:24;9.15;;;4.72;;
51312;SDS011;37397;53.226;10.400;2023-04-06T03:37:51;8.10;;;4.95;;
51312;SDS011;37397;53.226;10.400;2023-04-06T03:40:17;9.65;;;5.00;;
51312;SDS011;37397;53.226;10.400;2023-04-06T03:42:45;11.40;;;5.30;;
51312;SDS011;37397;53.226;10.400;2023-04-06T03:45:13;9.18;;;4.75;;
51312;SDS011;37397;53.226;10.400;2023-04-06T03:47:46;10.23;;;5.35;;
51312;SDS011;37397;53.226;10.400;2023-04-06T03:50:13;9.05;;;5.15;;
51312;SDS011;37397;53.226;10.400;2023-04-06T03:52:39;10.02;;;5.18;;
51312;SDS011;37397;53.226;10.400;2023-04-06T03:55:06;9.65;;;4.90;;
51312;SDS011;37397;53.226;10.400;2023-04-06T03:57:35;10.18;;;5.47;;
51312;SDS011;37397;53.226;10.400;2023-04-06T04:00:01;9.35;;;5.40;;
51312;SDS011;37397;53.226;10.400;2023-04-06T04:02:37;10.48;;;5.22;;
51312;SDS011;37397;53.226;10.400;2023-04-06T04:05:04;10.35;;;5.43;;
51312;SDS011;37397;53.226;10.400;2023-04-06T04:07:31;9.23;;;5.22;;
51312;SDS011;37397;53.226;10.400;2023-04-06T04:09:59;8.77;;;4.75;;
51312;SDS011;37397;53.226;10.400;2023-04-06T04:12:25;9.75;;;5.53;;
51312;SDS011;37397;53.226;10.400;2023-04-06T04:14:52;9.52;;;5.45;;
51312;SDS011;37397;53.226;10.400;2023-04-06T04:17:18;11.73;;;6.28;;
51312;SDS011;37397;53.226;10.400;2023-04-06T04:19:46;11.57;;;5.82;;
51312;SDS011;37397;53.226;10.400;2023-04-06T04:22:14;8.98;;;5.35;;
51312;SDS011;37397;53.226;10.400;2023-04-06T04:24:41;10.95;;;6.05;;
51312;SDS011;37397;53.226;10.400;2023-04-06T04:27:08;10.85;;;6.10;;
51312;SDS011;37397;53.226;10.400;2023-04-06T04:29:36;11.27;;;6.43;;
51312;SDS011;37397;53.226;10.400;2023-04-06T04:32:06;13.23;;;6.90;;
51312;SDS011;37397;53.226;10.400;2023-04-06T04:34:33;10.52;;;6.20;;
51312;SDS011;37397;53.226;10.400;2023-04-06T04:37:02;11.70;;;6.45;;
51312;SDS011;37397;53.226;10.400;2023-04-06T04:39:44;12.32;;;6.43;;
51312;SDS011;37397;53.226;10.400;2023-04-06T04:42:11;11.73;;;6.10;;
51312;SDS011;37397;53.226;10.400;2023-04-06T04:44:43;11.18;;;6.00;;
51312;SDS011;37397;53.226;10.400;2023-04-06T04:47:10;12.45;;;6.95;;
51312;SDS011;37397;53.226;10.400;2023-04-06T04:49:42;14.93;;;6.95;;
51312;SDS011;37397;53.226;10.400;2023-04-06T04:52:11;10.98;;;6.13;;
51312;SDS011;37397;53.226;10.400;2023-04-06T04:54:48;11.88;;;7.00;;
51312;SDS011;37397;53.226;10.400;2023-04-06T04:57:22;14.57;;;7.03;;
51312;SDS011;37397;53.226;10.400;2023-04-06T04:59:48;12.20;;;6.72;;
51312;SDS011;37397;53.226;10.400;2023-04-06T05:02:17;10.50;;;6.85;;
51312;SDS011;37397;53.226;10.400;2023-04-06T05:05:09;14.23;;;6.90;;
51312;SDS011;37397;53.226;10.400;2023-04-06T05:07:37;14.70;;;7.32;;
51312;SDS011;37397;53.226;10.400;2023-04-06T05:10:06;14.18;;;7.50;;
51312;SDS011;37397;53.226;10.400;2023-04-06T05:12:39;14.52;;;7.85;;
51312;SDS011;37397;53.226;10.400;2023-04-06T05:15:08;14.43;;;8.73;;
51312;SDS011;37397;53.226;10.400;2023-04-06T05:17:36;12.93;;;8.45;;
51312;SDS011;37397;53.226;10.400;2023-04-06T05:20:04;14.73;;;9.00;;
51312;SDS011;37397;53.226;10.400;2023-04-06T05:22:37;16.13;;;9.27;;
51312;SDS011;37397;53.226;10.400;2023-04-06T05:25:07;12.63;;;8.52;;
51312;SDS011;37397;53.226;10.400;2023-04-06T05:27:33;15.98;;;8.45;;
51312;SDS011;37397;53.226;10.400;2023-04-06T05:30:06;14.15;;;8.63;;
51312;SDS011;37397;53.226;10.400;2023-04-06T05:32:39;14.75;;;8.63;;
51312;SDS011;37397;53.226;10.400;2023-04-06T05:35:06;16.20;;;8.68;;
51312;SDS011;37397;53.226;10.400;2023-04-06T05:37:33;12.75;;;8.35;;
51312;SDS011;37397;53.226;10.400;2023-04-06T05:40:00;12.60;;;8.00;;
51312;SDS011;37397;53.226;10.400;2023-04-06T05:42:27;15.07;;;8.40;;
51312;SDS011;37397;53.226;10.400;2023-04-06T05:44:56;13.18;;;8.13;;
51312;SDS011;37397;53.226;10.400;2023-04-06T05:47:23;11.52;;;7.75;;
51312;SDS011;37397;53.226;10.400;2023-04-06T05:50:01;12.63;;;8.43;;
51312;SDS011;37397;53.226;10.400;2023-04-06T05:52:32;12.70;;;7.88;;
51312;SDS011;37397;53.226;10.400;2023-04-06T05:54:59;11.70;;;7.45;;
51312;SDS011;37397;53.226;10.400;2023-04-06T05:57:26;11.10;;;7.05;;
51312;SDS011;37397;53.226;10.400;2023-04-06T05:59:53;13.82;;;7.55;;
51312;SDS011;37397;53.226;10.400;2023-04-06T06:02:22;12.82;;;7.40;;
51312;SDS011;37397;53.226;10.400;2023-04-06T06:04:51;12.85;;;6.78;;
51312;SDS011;37397;53.226;10.400;2023-04-06T06:07:18;12.85;;;6.90;;
51312;SDS011;37397;53.226;10.400;2023-04-06T06:09:58;12.63;;;7.57;;
51312;SDS011;37397;53.226;10.400;2023-04-06T06:12:30;11.50;;;6.53;;
51312;SDS011;37397;53.226;10.400;2023-04-06T06:14:57;14.05;;;7.93;;
51312;SDS011;37397;53.226;10.400;2023-04-06T06:17:26;14.80;;;8.50;;
51312;SDS011;37397;53.226;10.400;2023-04-06T06:19:52;17.85;;;8.77;;
51312;SDS011;37397;53.226;10.400;2023-04-06T06:22:19;18.55;;;10.77;;
51312;SDS011;37397;53.226;10.400;2023-04-06T06:24:46;15.35;;;8.98;;
51312;SDS011;37397;53.226;10.400;2023-04-06T06:27:15;15.00;;;8.95;;
51312;SDS011;37397;53.226;10.400;2023-04-06T06:29:42;15.18;;;8.35;;
51312;SDS011;37397;53.226;10.400;2023-04-06T06:32:09;13.63;;;7.97;;
51312;SDS011;37397;53.226;10.400;2023-04-06T06:34:37;11.80;;;7.10;;
51312;SDS011;37397;53.226;10.400;2023-04-06T06:37:06;11.88;;;7.03;;
51312;SDS011;37397;53.226;10.400;2023-04-06T06:39:33;13.00;;;7.40;;
51312;SDS011;37397;53.226;10.400;2023-04-06T06:42:00;12.20;;;7.07;;
51312;SDS011;37397;53.226;10.400;2023-04-06T06:44:59;10.70;;;6.03;;
51312;SDS011;37397;53.226;10.400;2023-04-06T06:47:26;11.63;;;6.75;;
51312;SDS011;37397;53.226;10.400;2023-04-06T06:49:52;12.98;;;6.70;;
51312;SDS011;37397;53.226;10.400;2023-04-06T06:52:19;12.50;;;6.40;;
51312;SDS011;37397;53.226;10.400;2023-04-06T06:54:45;12.63;;;6.40;;
51312;SDS011;37397;53.226;10.400;2023-04-06T06:57:12;13.50;;;6.97;;
51312;SDS011;37397;53.226;10.400;2023-04-06T06:59:38;11.68;;;6.65;;
51312;SDS011;37397;53.226;10.400;2023-04-06T07:02:05;11.27;;;6.82;;
51312;SDS011;37397;53.226;10.400;2023-04-06T07:04:32;12.85;;;6.30;;
51312;SDS011;37397;53.226;10.400;2023-04-06T07:06:59;13.23;;;7.32;;
51312;SDS011;37397;53.226;10.400;2023-04-06T07:09:26;12.25;;;6.13;;
51312;SDS011;37397;53.226;10.400;2023-04-06T07:11:52;11.23;;;6.45;;
51312;SDS011;37397;53.226;10.400;2023-04-06T07:14:19;11.43;;;6.57;;
51312;SDS011;37397;53.226;10.400;2023-04-06T07:16:45;11.60;;;5.57;;
51312;SDS011;37397;53.226;10.400;2023-04-06T07:19:13;12.18;;;5.50;;
51312;SDS011;37397;53.226;10.400;2023-04-06T07:21:40;10.57;;;5.60;;
51312;SDS011;37397;53.226;10.400;2023-04-06T07:24:06;11.05;;;5.68;;
51312;SDS011;37397;53.226;10.400;2023-04-06T07:26:33;9.43;;;6.22;;
51312;SDS011;37397;53.226;10.400;2023-04-06T07:29:00;10.13;;;6.15;;
51312;SDS011;37397;53.226;10.400;2023-04-06T07:31:27;9.68;;;5.80;;
51312;SDS011;37397;53.226;10.400;2023-04-06T07:33:53;10.63;;;5.93;;
51312;SDS011;37397;53.226;10.400;2023-04-06T07:36:20;11.45;;;5.75;;
51312;SDS011;37397;53.226;10.400;2023-04-06T07:38:46;10.05;;;5.57;;
51312;SDS011;37397;53.226;10.400;2023-04-06T07:41:13;10.45;;;5.50;;
51312;SDS011;37397;53.226;10.400;2023-04-06T07:43:40;9.32;;;5.20;;
51312;SDS011;37397;53.226;10.400;2023-04-06T07:46:07;12.85;;;6.38;;
51312;SDS011;37397;53.226;10.400;2023-04-06T07:48:33;13.10;;;6.63;;
51312;SDS011;37397;53.226;10.400;2023-04-06T07:51:00;10.88;;;6.00;;
51312;SDS011;37397;53.226;10.400;2023-04-06T07:53:29;11.85;;;6.40;;
51312;SDS011;37397;53.226;10.400;2023-04-06T07:55:58;12.15;;;5.82;;
51312;SDS011;37397;53.226;10.400;2023-04-06T07:58:25;13.13;;;5.55;;
51312;SDS011;37397;53.226;10.400;2023-04-06T08:00:52;11.10;;;5.70;;
51312;SDS011;37397;53.226;10.400;2023-04-06T08:03:18;10.50;;;5.47;;
51312;SDS011;37397;53.226;10.400;2023-04-06T08:05:47;10.55;;;6.07;;
51312;SDS011;37397;53.226;10.400;2023-04-06T08:08:14;10.80;;;5.85;;
51312;SDS011;37397;53.226;10.400;2023-04-06T08:10:40;10.75;;;5.28;;
51312;SDS011;37397;53.226;10.400;2023-04-06T08:13:07;13.77;;;6.15;;
51312;SDS011;37397;53.226;10.400;2023-04-06T08:15:34;11.75;;;6.43;;
51312;SDS011;37397;53.226;10.400;2023-04-06T08:18:01;11.70;;;6.22;;
51312;SDS011;37397;53.226;10.400;2023-04-06T08:20:27;13.07;;;6.18;;
51312;SDS011;37397;53.226;10.400;2023-04-06T08:22:54;9.65;;;5.53;;
51312;SDS011;37397;53.226;10.400;2023-04-06T08:25:20;10.68;;;5.78;;
51312;SDS011;37397;53.226;10.400;2023-04-06T08:27:47;10.05;;;5.35;;
51312;SDS011;37397;53.226;10.400;2023-04-06T08:30:14;12.48;;;5.10;;
51312;SDS011;37397;53.226;10.400;2023-04-06T08:32:41;9.98;;;5.47;;
51312;SDS011;37397;53.226;10.400;2023-04-06T08:35:08;12.68;;;5.50;;
51312;SDS011;37397;53.226;10.400;2023-04-06T08:37:35;13.10;;;5.35;;
51312;SDS011;37397;53.226;10.400;2023-04-06T08:40:01;11.30;;;5.63;;
51312;SDS011;37397;53.226;10.400;2023-04-06T08:42:31;9.90;;;5.32;;
51312;SDS011;37397;53.226;10.400;2023-04-06T08:44:58;9.98;;;5.15;;
51312;SDS011;37397;53.226;10.400;2023-04-06T08:47:25;9.15;;;4.82;;
51312;SDS011;37397;53.226;10.400;2023-04-06T08:49:52;10.68;;;5.40;;
51312;SDS011;37397;53.226;10.400;2023-04-06T08:52:20;10.52;;;5.38;;
51312;SDS011;37397;53.226;10.400;2023-04-06T08:54:47;8.52;;;4.97;;
51312;SDS011;37397;53.226;10.400;2023-04-06T08:57:13;10.63;;;5.78;;
51312;SDS011;37397;53.226;10.400;2023-04-06T08:59:41;9.65;;;5.32;;
51312;SDS011;37397;53.226;10.400;2023-04-06T09:02:08;9.88;;;5.65;;
51312;SDS011;37397;53.226;10.400;2023-04-06T09:04:43;10.32;;;4.80;;
51312;SDS011;37397;53.226;10.400;2023-04-06T09:07:20;11.82;;;5.70;;
51312;SDS011;37397;53.226;10.400;2023-04-06T09:09:47;8.52;;;5.22;;
51312;SDS011;37397;53.226;10.400;2023-04-06T09:12:24;11.13;;;6.50;;
51312;SDS011;37397;53.226;10.400;2023-04-06T09:14:54;13.43;;;6.53;;
51312;SDS011;37397;53.226;10.400;2023-04-06T09:17:23;9.68;;;5.80;;
51312;SDS011;37397;53.226;10.400;2023-04-06T09:19:53;12.15;;;5.90;;
51312;SDS011;37397;53.226;10.400;2023-04-06T09:22:20;10.45;;;5.90;;
51312;SDS011;37397;53.226;10.400;2023-04-06T09:24:51;9.98;;;5.78;;
51312;SDS011;37397;53.226;10.400;2023-04-06T09:27:35;11.88;;;6.10;;
51312;SDS011;37397;53.226;10.400;2023-04-06T09:30:07;12.10;;;5.90;;
51312;SDS011;37397;53.226;10.400;2023-04-06T09:32:52;11.65;;;6.57;;
51312;SDS011;37397;53.226;10.400;2023-04-06T09:35:20;13.05;;;6.05;;
51312;SDS011;37397;53.226;10.400;2023-04-06T09:37:49;9.95;;;6.10;;
51312;SDS011;37397;53.226;10.400;2023-04-06T09:40:17;10.50;;;5.97;;
51312;SDS011;37397;53.226;10.400;2023-04-06T09:42:46;10.77;;;6.28;;
51312;SDS011;37397;53.226;10.400;2023-04-06T09:45:13;11.68;;;5.70;;
51312;SDS011;37397;53.226;10.400;2023-04-06T09:47:44;11.90;;;5.95;;
51312;SDS011;37397;53.226;10.400;2023-04-06T09:50:12;11.45;;;6.32;;
51312;SDS011;37397;53.226;10.400;2023-04-06T09:52:41;14.90;;;6.70;;
51312;SDS011;37397;53.226;10.400;2023-04-06T09:55:16;9.75;;;6.57;;
51312;SDS011;37397;53.226;10.400;2023-04-06T09:57:53;11.95;;;6.50;;
51312;SDS011;37397;53.226;10.400;2023-04-06T10:00:24;10.45;;;6.35;;
51312;SDS011;37397;53.226;10.400;2023-04-06T10:02:59;9.70;;;5.65;;
51312;SDS011;37397;53.226;10.400;2023-04-06T10:05:43;13.30;;;6.82;;
51312;SDS011;37397;53.226;10.400;2023-04-06T10:08:13;13.45;;;7.15;;
51312;SDS011;37397;53.226;10.400;2023-04-06T10:10:40;10.65;;;7.05;;
51312;SDS011;37397;53.226;10.400;2023-04-06T10:13:10;9.40;;;6.45;;
51312;SDS011;37397;53.226;10.400;2023-04-06T10:15:38;11.05;;;6.85;;
51312;SDS011;37397;53.226;10.400;2023-04-06T10:18:06;10.93;;;6.78;;
51312;SDS011;37397;53.226;10.400;2023-04-06T10:20:42;11.13;;;6.95;;
51312;SDS011;37397;53.226;10.400;2023-04-06T10:23:15;12.38;;;7.10;;
51312;SDS011;37397;53.226;10.400;2023-04-06T10:25:53;12.38;;;7.43;;
51312;SDS011;37397;53.226;10.400;2023-04-06T10:28:21;10.00;;;6.53;;
51312;SDS011;37397;53.226;10.400;2023-04-06T10:30:48;11.77;;;6.95;;
51312;SDS011;37397;53.226;10.400;2023-04-06T10:33:15;11.00;;;6.25;;
51312;SDS011;37397;53.226;10.400;2023-04-06T10:35:43;13.90;;;7.35;;
51312;SDS011;37397;53.226;10.400;2023-04-06T10:38:10;13.50;;;7.10;;
51312;SDS011;37397;53.226;10.400;2023-04-06T10:40:39;13.02;;;7.45;;
51312;SDS011;37397;53.226;10.400;2023-04-06T10:43:13;13.65;;;7.38;;
51312;SDS011;37397;53.226;10.400;2023-04-06T10:45:54;13.27;;;7.05;;
51312;SDS011;37397;53.226;10.400;2023-04-06T10:48:22;11.38;;;6.85;;
51312;SDS011;37397;53.226;10.400;2023-04-06T10:50:50;10.52;;;6.88;;
51312;SDS011;37397;53.226;10.400;2023-04-06T10:53:25;13.77;;;7.20;;
51312;SDS011;37397;53.226;10.400;2023-04-06T10:55:56;11.35;;;6.95;;
51312;SDS011;37397;53.226;10.400;2023-04-06T10:58:26;12.50;;;7.07;;
51312;SDS011;37397;53.226;10.400;2023-04-06T11:00:54;11.40;;;6.70;;
51312;SDS011;37397;53.226;10.400;2023-04-06T11:03:21;10.05;;;6.80;;
51312;SDS011;37397;53.226;10.400;2023-04-06T11:05:49;12.32;;;7.35;;
51312;SDS011;37397;53.226;10.400;2023-04-06T11:08:28;15.00;;;7.05;;
51312;SDS011;37397;53.226;10.400;2023-04-06T11:11:10;13.50;;;6.82;;
51312;SDS011;37397;53.226;10.400;2023-04-06T11:13:45;11.73;;;6.88;;
51312;SDS011;37397;53.226;10.400;2023-04-06T11:16:17;11.68;;;7.20;;
51312;SDS011;37397;53.226;10.400;2023-04-06T11:18:48;12.63;;;6.90;;
51312;SDS011;37397;53.226;10.400;2023-04-06T11:21:20;13.07;;;6.85;;
51312;SDS011;37397;53.226;10.400;2023-04-06T11:24:04;10.25;;;6.35;;
51312;SDS011;37397;53.226;10.400;2023-04-06T11:26:31;11.70;;;7.60;;
51312;SDS011;37397;53.226;10.400;2023-04-06T11:29:02;14.25;;;7.22;;
51312;SDS011;37397;53.226;10.400;2023-04-06T11:31:29;12.10;;;7.38;;
51312;SDS011;37397;53.226;10.400;2023-04-06T11:33:59;11.75;;;7.45;;
51312;SDS011;37397;53.226;10.400;2023-04-06T11:36:28;14.82;;;7.65;;
51312;SDS011;37397;53.226;10.400;2023-04-06T11:38:56;11.82;;;7.20;;
51312;SDS011;37397;53.226;10.400;2023-04-06T11:41:23;11.98;;;7.50;;
51312;SDS011;37397;53.226;10.400;2023-04-06T11:43:54;15.13;;;8.25;;
51312;SDS011;37397;53.226;10.400;2023-04-06T11:46:21;12.98;;;8.02;;
51312;SDS011;37397;53.226;10.400;2023-04-06T11:48:47;14.43;;;7.53;;
51312;SDS011;37397;53.226;10.400;2023-04-06T11:51:21;11.48;;;7.38;;
51312;SDS011;37397;53.226;10.400;2023-04-06T11:53:49;13.60;;;7.85;;
51312;SDS011;37397;53.226;10.400;2023-04-06T11:56:23;13.05;;;7.72;;
51312;SDS011;37397;53.226;10.400;2023-04-06T11:58:51;12.05;;;7.55;;
51312;SDS011;37397;53.226;10.400;2023-04-06T12:01:18;13.82;;;7.85;;
51312;SDS011;37397;53.226;10.400;2023-04-06T12:03:44;12.77;;;8.23;;
51312;SDS011;37397;53.226;10.400;2023-04-06T12:06:13;13.38;;;7.88;;
51312;SDS011;37397;53.226;10.400;2023-04-06T12:08:39;11.98;;;7.82;;
51312;SDS011;37397;53.226;10.400;2023-04-06T12:11:06;12.45;;;8.75;;
51312;SDS011;37397;53.226;10.400;2023-04-06T12:13:33;15.18;;;8.68;;
51312;SDS011;37397;53.226;10.400;2023-04-06T12:15:59;13.27;;;8.18;;
51312;SDS011;37397;53.226;10.400;2023-04-06T12:18:26;12.82;;;8.45;;
51312;SDS011;37397;53.226;10.400;2023-04-06T12:20:52;13.50;;;8.40;;
51312;SDS011;37397;53.226;10.400;2023-04-06T12:23:19;14.02;;;8.43;;
51312;SDS011;37397;53.226;10.400;2023-04-06T12:25:46;16.08;;;10.15;;
51312;SDS011;37397;53.226;10.400;2023-04-06T12:28:12;14.65;;;8.98;;
51312;SDS011;37397;53.226;10.400;2023-04-06T12:30:38;15.52;;;9.30;;
51312;SDS011;37397;53.226;10.400;2023-04-06T12:33:07;14.70;;;9.57;;
51312;SDS011;37397;53.226;10.400;2023-04-06T12:35:33;13.63;;;9.13;;
51312;SDS011;37397;53.226;10.400;2023-04-06T12:38:00;15.02;;;9.45;;
51312;SDS011;37397;53.226;10.400;2023-04-06T12:40:27;13.30;;;9.00;;
51312;SDS011;37397;53.226;10.400;2023-04-06T12:42:53;14.02;;;8.75;;
51312;SDS011;37397;53.226;10.400;2023-04-06T12:45:19;12.63;;;9.07;;
51312;SDS011;37397;53.226;10.400;2023-04-06T12:47:46;13.95;;;8.65;;
51312;SDS011;37397;53.226;10.400;2023-04-06T12:50:13;14.75;;;8.77;;
51312;SDS011;37397;53.226;10.400;2023-04-06T12:52:39;14.05;;;8.88;;
51312;SDS011;37397;53.226;10.400;2023-04-06T12:55:06;14.80;;;8.50;;
51312;SDS011;37397;53.226;10.400;2023-04-06T12:57:33;14.52;;;8.73;;
51312;SDS011;37397;53.226;10.400;2023-04-06T12:59:59;12.63;;;8.70;;
51312;SDS011;37397;53.226;10.400;2023-04-06T13:02:26;17.05;;;9.82;;
51312;SDS011;37397;53.226;10.400;2023-04-06T13:04:53;14.65;;;9.23;;
51312;SDS011;37397;53.226;10.400;2023-04-06T13:07:19;14.13;;;9.43;;
51312;SDS011;37397;53.226;10.400;2023-04-06T13:09:46;15.88;;;8.57;;
51312;SDS011;37397;53.226;10.400;2023-04-06T13:12:13;13.82;;;9.15;;
51312;SDS011;37397;53.226;10.400;2023-04-06T13:14:40;13.35;;;8.73;;
51312;SDS011;37397;53.226;10.400;2023-04-06T13:17:06;14.68;;;8.88;;
51312;SDS011;37397;53.226;10.400;2023-04-06T13:19:33;13.23;;;9.18;;
51312;SDS011;37397;53.226;10.400;2023-04-06T13:21:59;14.13;;;9.00;;
51312;SDS011;37397;53.226;10.400;2023-04-06T13:24:26;16.88;;;8.98;;
51312;SDS011;37397;53.226;10.400;2023-04-06T13:26:52;14.88;;;8.98;;
51312;SDS011;37397;53.226;10.400;2023-04-06T13:29:19;14.50;;;8.85;;
51312;SDS011;37397;53.226;10.400;2023-04-06T13:31:46;14.43;;;8.82;;
51312;SDS011;37397;53.226;10.400;2023-04-06T13:34:12;13.23;;;7.85;;
51312;SDS011;37397;53.226;10.400;2023-04-06T13:36:39;14.82;;;9.10;;
51312;SDS011;37397;53.226;10.400;2023-04-06T13:39:07;13.80;;;8.68;;
51312;SDS011;37397;53.226;10.400;2023-04-06T13:41:34;15.43;;;9.40;;
51312;SDS011;37397;53.226;10.400;2023-04-06T13:44:00;13.13;;;8.98;;
51312;SDS011;37397;53.226;10.400;2023-04-06T13:46:27;17.88;;;10.27;;
51312;SDS011;37397;53.226;10.400;2023-04-06T13:48:54;13.40;;;8.90;;
51312;SDS011;37397;53.226;10.400;2023-04-06T13:51:20;15.80;;;9.57;;
51312;SDS011;37397;53.226;10.400;2023-04-06T13:53:47;16.63;;;8.75;;
51312;SDS011;37397;53.226;10.400;2023-04-06T13:56:16;13.85;;;8.60;;
51312;SDS011;37397;53.226;10.400;2023-04-06T13:58:42;14.07;;;9.13;;
51312;SDS011;37397;53.226;10.400;2023-04-06T14:01:09;12.10;;;8.45;;
51312;SDS011;37397;53.226;10.400;2023-04-06T14:03:37;14.40;;;9.32;;
51312;SDS011;37397;53.226;10.400;2023-04-06T14:06:12;14.30;;;8.70;;
51312;SDS011;37397;53.226;10.400;2023-04-06T14:08:42;13.60;;;8.93;;
51312;SDS011;37397;53.226;10.400;2023-04-06T14:11:12;12.65;;;8.68;;
51312;SDS011;37397;53.226;10.400;2023-04-06T14:13:39;14.95;;;8.77;;
51312;SDS011;37397;53.226;10.400;2023-04-06T14:16:06;12.75;;;8.27;;
51312;SDS011;37397;53.226;10.400;2023-04-06T14:18:33;11.20;;;8.48;;
51312;SDS011;37397;53.226;10.400;2023-04-06T14:21:00;13.55;;;8.75;;
51312;SDS011;37397;53.226;10.400;2023-04-06T14:23:27;13.80;;;8.60;;
51312;SDS011;37397;53.226;10.400;2023-04-06T14:26:04;13.20;;;8.57;;
51312;SDS011;37397;53.226;10.400;2023-04-06T14:28:32;14.73;;;8.75;;
51312;SDS011;37397;53.226;10.400;2023-04-06T14:30:59;11.85;;;8.15;;
51312;SDS011;37397;53.226;10.400;2023-04-06T14:33:26;13.30;;;8.18;;
51312;SDS011;37397;53.226;10.400;2023-04-06T14:35:53;14.15;;;9.05;;